Silver Cliff, Wisconsin
Current Conditions -  °F | °C
As of 11:03 AM on Wednesday 22 Oct 2014 (Local Time) from KIMT Reporting Station
Moderate Fog Moderate Fog  
Wind Chill: 31°   Ceiling: 200
Heat Index: 36°   Visibility: 0.5mi
Dew Point: 35°   Wind: 6mph
Humidity: 97%   Direction: 150°SSE
Pressure: 30.36"   Gusts: NA
Location:  45.4596°N, 88.2404°W
Report Text: KIMT 221603Z AUTO 15005KT 1/2SM FG VV002 02/02 A3036 RMK AO2 T00220017
Loading
Personal Weather Stations






























Interactive Weather Map
Tropical Storm Tracking
New forecast layout! Learn more

10-Day Weather Forecast

Advertisements
Track Severe Weather on mobile